Time;durP1;ratioP1;P1;durP2;ratioP2;P2;SDS_P1;SDS_P2;PMS_P1;PMS_P2;Temp;Humidity;BMP_temperature;BMP_pressure;BME280_temperature;BME280_humidity;BME280_pressure;Samples;Min_cycle;Max_cycle;Signal;HPM_P1;HPM_P2
2023/11/12 00:01:46;;;;;;;0.10;0.10;;;;;;;3.76;80.30;99269.41;4959890;28;20051;-69
2023/11/12 00:04:14;;;;;;;0.10;0.10;;;;;;;3.78;80.08;99275.41;4957403;28;20619;-69
2023/11/12 00:06:41;;;;;;;0.10;0.10;;;;;;;3.77;80.17;99273.75;4959614;28;20191;-69
2023/11/12 00:09:08;;;;;;;0.10;0.10;;;;;;;3.77;80.13;99271.88;4957321;28;20501;-69
2023/11/12 00:11:34;;;;;;;0.10;0.10;;;;;;;3.82;80.43;99261.16;4957244;28;20125;-69
2023/11/12 00:14:02;;;;;;;0.10;0.10;;;;;;;3.87;80.20;99252.31;4957515;28;20498;-68
2023/11/12 00:16:29;;;;;;;0.10;0.10;;;;;;;3.82;79.88;99250.31;4959879;28;20130;-69
2023/11/12 00:18:55;;;;;;;0.10;0.10;;;;;;;3.83;80.94;99243.84;4957836;28;20169;-69
2023/11/12 00:21:23;;;;;;;0.10;0.10;;;;;;;3.88;80.76;99237.72;4948283;28;20043;-69
2023/11/12 00:23:51;;;;;;;0.10;0.10;;;;;;;3.90;80.79;99234.75;4957005;28;20581;-69
2023/11/12 00:26:17;;;;;;;0.10;0.10;;;;;;;3.88;80.56;99234.19;4960129;28;20146;-70
2023/11/12 00:28:50;;;;;;;0.10;0.10;;;;;;;3.88;80.75;99224.19;4956312;28;20142;-70
2023/11/12 00:31:16;;;;;;;0.10;0.10;;;;;;;3.91;80.57;99214.78;4936926;28;20811;-70
2023/11/12 00:33:42;;;;;;;0.10;0.10;;;;;;;3.95;80.79;99222.13;4957495;28;20046;-70
2023/11/12 00:36:09;;;;;;;0.20;0.20;;;;;;;4.02;80.94;99215.75;4957580;28;20054;-70
2023/11/12 00:38:37;;;;;;;0.10;0.10;;;;;;;4.04;80.77;99211.72;4953657;28;20051;-68
2023/11/12 00:41:03;;;;;;;;;;;;;;;4.07;80.98;99211.25;4956392;28;20405;-68
2023/11/12 00:43:32;;;;;;;0.10;0.10;;;;;;;4.08;80.44;99187.72;4955475;28;19930;-68
2023/11/12 00:45:59;;;;;;;0.10;0.10;;;;;;;4.02;80.49;99199.53;4960146;28;20068;-70
2023/11/12 00:48:25;;;;;;;0.00;0.00;;;;;;;3.95;80.73;99194.28;4957139;28;20471;-70
2023/11/12 00:50:51;;;;;;;0.10;0.10;;;;;;;3.97;80.78;99178.63;4958413;28;20562;-70
2023/11/12 00:53:18;;;;;;;0.00;0.00;;;;;;;3.95;81.16;99170.75;4955042;28;20500;-69
2023/11/12 00:55:46;;;;;;;0.10;0.10;;;;;;;4.02;81.30;99180.59;4939380;28;20053;-69
2023/11/12 00:58:12;;;;;;;0.10;0.10;;;;;;;4.01;81.04;99168.94;4956727;28;20047;-70
2023/11/12 01:00:42;;;;;;;0.10;0.10;;;;;;;3.93;81.31;99151.22;4956451;28;20047;-69
2023/11/12 01:03:09;;;;;;;0.10;0.10;;;;;;;3.97;81.29;99156.97;4973508;28;20777;-68
2023/11/12 01:05:38;;;;;;;0.10;0.10;;;;;;;4.00;81.69;99158.38;4963206;28;20124;-69
2023/11/12 01:08:04;;;;;;;0.10;0.10;;;;;;;3.92;82.09;99135.28;4956471;28;20051;-69
2023/11/12 01:10:30;;;;;;;0.10;0.10;;;;;;;4.01;82.31;99151.91;4980114;28;20523;-69
2023/11/12 01:12:59;;;;;;;0.10;0.10;;;;;;;4.01;82.77;99141.88;4955782;28;20062;-69
2023/11/12 01:15:29;;;;;;;0.10;0.10;;;;;;;4.01;83.01;99139.19;4956388;28;20047;-69
2023/11/12 01:17:55;;;;;;;0.10;0.10;;;;;;;3.99;83.67;99122.38;4959662;28;20090;-69
2023/11/12 01:20:22;;;;;;;0.10;0.10;;;;;;;3.94;84.33;99133.94;4985121;28;20482;-69
2023/11/12 01:22:48;;;;;;;0.10;0.10;;;;;;;3.93;85.02;99132.28;4976290;28;20517;-69
2023/11/12 01:25:15;;;;;;;0.10;0.10;;;;;;;3.91;85.37;99126.31;4957550;28;20059;-69
2023/11/12 01:27:41;;;;;;;0.10;0.10;;;;;;;3.91;85.94;99129.03;4960597;28;20066;-70
2023/11/12 01:30:10;;;;;;;0.10;0.10;;;;;;;3.89;86.31;99124.91;4962412;28;20436;-70
2023/11/12 01:32:36;;;;;;;0.10;0.10;;;;;;;3.82;86.66;99112.41;4976888;28;20145;-70
2023/11/12 01:35:03;;;;;;;0.10;0.10;;;;;;;3.77;87.61;99109.63;4958163;28;20039;-70
2023/11/12 01:37:31;;;;;;;0.10;0.10;;;;;;;3.71;88.38;99099.78;4960005;28;20063;-70
2023/11/12 01:39:57;;;;;;;0.10;0.10;;;;;;;3.66;88.69;99094.28;4943405;28;20065;-70
2023/11/12 01:42:25;;;;;;;0.10;0.10;;;;;;;3.60;89.36;99100.69;4957481;28;20464;-71
2023/11/12 01:44:51;;;;;;;0.10;0.10;;;;;;;3.57;89.64;99088.47;4941640;28;20104;-70
2023/11/12 01:47:18;;;;;;;0.10;0.10;;;;;;;3.53;89.87;99090.03;4957700;28;20066;-70
2023/11/12 01:49:45;;;;;;;0.10;0.10;;;;;;;3.54;90.31;99086.28;4940621;28;20070;-70
2023/11/12 01:52:13;;;;;;;0.10;0.10;;;;;;;3.57;90.52;99079.53;4963715;28;20049;-69
2023/11/12 01:54:40;;;;;;;0.10;0.10;;;;;;;3.59;90.54;99077.41;4973578;28;20465;-70
2023/11/12 01:57:07;;;;;;;;;;;;;;;3.60;90.78;99066.34;4958785;28;20050;-69
2023/11/12 01:59:35;;;;;;;0.10;0.10;;;;;;;3.63;90.87;99073.16;4959875;28;20443;-70
2023/11/12 02:02:02;;;;;;;0.10;0.10;;;;;;;3.61;90.78;99059.06;4972328;28;20045;-69
2023/11/12 02:04:30;;;;;;;0.00;0.00;;;;;;;3.62;90.88;99060.72;4958513;28;20476;-70
2023/11/12 02:06:56;;;;;;;;;;;;;;;3.61;90.93;99040.16;4945862;28;20407;-70
2023/11/12 02:09:22;;;;;;;0.10;0.10;;;;;;;3.59;90.71;99042.25;4971229;28;20067;-70
2023/11/12 02:11:50;;;;;;;0.10;0.10;;;;;;;3.63;90.68;99040.72;4955721;28;20047;-70
2023/11/12 02:14:20;;;;;;;0.10;0.10;;;;;;;3.59;91.39;99034.16;4957287;28;20047;-70
2023/11/12 02:16:50;;;;;;;0.10;0.10;;;;;;;3.57;91.83;99026.31;4971791;28;20130;-70
2023/11/12 02:19:25;;;;;;;0.10;0.10;;;;;;;3.51;92.26;99028.09;4959268;28;20149;-70
2023/11/12 02:22:13;;;;;;;0.10;0.10;;;;;;;3.47;92.24;99012.63;4957769;28;20508;-69
2023/11/12 02:24:40;;;;;;;0.10;0.10;;;;;;;3.56;92.56;99011.16;4956243;28;20055;-70
2023/11/12 02:27:06;;;;;;;0.10;0.10;;;;;;;3.59;92.26;99007.13;4959553;28;20065;-70
2023/11/12 02:29:33;;;;;;;0.10;0.10;;;;;;;3.58;92.20;99000.91;4979740;28;20061;-69
2023/11/12 02:31:59;;;;;;;0.10;0.10;;;;;;;3.59;92.11;98991.72;4961187;28;20062;-70
2023/11/12 02:34:25;;;;;;;0.10;0.10;;;;;;;3.58;91.95;98983.84;4956394;28;20054;-70
2023/11/12 02:36:52;;;;;;;0.10;0.10;;;;;;;3.53;92.26;98971.91;4926775;28;20065;-69
2023/11/12 02:39:20;;;;;;;0.10;0.10;;;;;;;3.52;92.55;98958.66;4952250;28;20118;-70
2023/11/12 02:41:49;;;;;;;0.10;0.10;;;;;;;3.52;92.53;98948.66;4957310;28;20057;-70
2023/11/12 02:44:15;;;;;;;0.10;0.10;;;;;;;3.52;92.57;98955.97;4957087;28;20050;-70
2023/11/12 02:46:41;;;;;;;0.10;0.10;;;;;;;3.53;92.64;98944.06;4963532;28;20046;-70
2023/11/12 02:49:28;;;;;;;0.10;0.10;;;;;;;3.52;92.16;98932.44;4958009;28;20046;-69
2023/11/12 02:51:54;;;;;;;0.10;0.10;;;;;;;3.49;92.29;98924.00;4997051;28;20493;-69
2023/11/12 02:54:20;;;;;;;0.10;0.10;;;;;;;3.52;92.60;98912.72;4989813;28;20048;-69
2023/11/12 02:56:47;;;;;;;0.10;0.10;;;;;;;3.55;92.81;98909.50;4957219;28;20137;-68
2023/11/12 02:59:14;;;;;;;0.00;0.00;;;;;;;3.56;92.26;98889.50;4957367;28;20132;-69
2023/11/12 03:01:40;;;;;;;0.10;0.10;;;;;;;3.52;92.14;98889.19;4957220;28;20556;-69
2023/11/12 03:04:06;;;;;;;0.10;0.10;;;;;;;3.50;92.37;98890.50;4971413;28;20070;-69
2023/11/12 03:06:32;;;;;;;0.10;0.10;;;;;;;3.51;92.59;98884.84;4955798;28;20112;-69
2023/11/12 03:08:59;;;;;;;0.10;0.10;;;;;;;3.51;92.55;98881.31;4960131;28;20116;-70
2023/11/12 03:11:27;;;;;;;0.10;0.10;;;;;;;3.53;92.39;98877.31;4960541;28;20050;-70
2023/11/12 03:13:55;;;;;;;0.10;0.10;;;;;;;3.53;92.24;98876.50;4978544;28;20515;-70
2023/11/12 03:16:23;;;;;;;0.10;0.10;;;;;;;3.50;92.58;98864.28;4974168;28;20053;-69
2023/11/12 03:18:50;;;;;;;0.10;0.10;;;;;;;3.61;92.01;98867.13;4958463;28;20471;-70
2023/11/12 03:21:16;;;;;;;0.10;0.10;;;;;;;3.60;92.09;98857.38;4977995;28;20040;-70
2023/11/12 03:23:42;;;;;;;0.10;0.10;;;;;;;3.64;92.22;98856.59;4956861;28;20062;-70
2023/11/12 03:26:10;;;;;;;0.10;0.10;;;;;;;3.66;91.89;98873.41;4956338;28;20213;-70
2023/11/12 03:28:36;;;;;;;0.10;0.10;;;;;;;3.66;91.92;98853.66;4963976;28;20061;-70
2023/11/12 03:31:04;;;;;;;0.10;0.10;;;;;;;3.66;91.97;98840.94;4967770;28;20170;-70
2023/11/12 03:33:31;;;;;;;;;;;;;;;3.69;91.80;98840.47;4972039;28;20149;-69
2023/11/12 03:35:58;;;;;;;0.10;0.10;;;;;;;3.65;91.46;98844.72;4965204;28;19926;-69
2023/11/12 03:38:24;;;;;;;0.10;0.10;;;;;;;3.64;91.22;98853.09;4956165;28;20409;-70
2023/11/12 03:40:50;;;;;;;0.10;0.10;;;;;;;3.66;91.42;98846.34;4980994;28;20081;-70
2023/11/12 03:43:16;;;;;;;0.10;0.10;;;;;;;3.59;91.33;98839.50;4963039;28;20445;-69
2023/11/12 03:45:43;;;;;;;0.10;0.10;;;;;;;3.59;91.31;98843.03;4926533;28;20051;-69
2023/11/12 03:48:11;;;;;;;0.10;0.10;;;;;;;3.55;91.43;98828.41;4962072;28;20078;-70
2023/11/12 03:50:37;;;;;;;0.10;0.10;;;;;;;3.55;91.53;98826.50;4958445;28;20112;-69
2023/11/12 03:53:04;;;;;;;0.10;0.10;;;;;;;3.57;91.33;98820.84;4944100;28;20046;-69
2023/11/12 03:55:30;;;;;;;0.00;0.00;;;;;;;3.57;91.05;98809.22;4998395;28;20129;-69
2023/11/12 03:57:58;;;;;;;0.10;0.10;;;;;;;3.58;91.21;98808.13;4959509;28;20047;-69
2023/11/12 04:00:24;;;;;;;0.10;0.10;;;;;;;3.61;91.09;98796.84;4956583;28;20461;-69
2023/11/12 04:02:51;;;;;;;0.10;0.10;;;;;;;3.55;91.14;98791.38;4961548;28;20054;-69
2023/11/12 04:05:18;;;;;;;0.10;0.10;;;;;;;3.53;90.96;98796.22;4982423;28;20487;-70
2023/11/12 04:07:44;;;;;;;0.10;0.10;;;;;;;3.49;91.00;98792.38;4959714;28;20059;-70
2023/11/12 04:10:11;;;;;;;0.10;0.10;;;;;;;3.49;91.15;98784.28;4954719;28;20607;-70
2023/11/12 04:12:38;;;;;;;0.10;0.10;;;;;;;3.51;91.17;98808.34;4974469;28;20160;-70
2023/11/12 04:15:05;;;;;;;0.10;0.10;;;;;;;3.53;91.28;98798.91;4975725;28;20529;-70
2023/11/12 04:17:31;;;;;;;0.00;0.00;;;;;;;3.59;90.90;98793.56;4966856;28;20306;-70
2023/11/12 04:19:58;;;;;;;0.10;0.10;;;;;;;3.58;90.61;98795.44;4990468;28;20326;-70
2023/11/12 04:22:25;;;;;;;0.10;0.10;;;;;;;3.60;90.67;98762.78;4989849;28;20379;-69
2023/11/12 04:24:53;;;;;;;;;;;;;;;3.63;90.67;98754.16;4958790;28;20050;-70
2023/11/12 04:27:21;;;;;;;0.10;0.10;;;;;;;3.56;90.06;98740.84;4972485;28;19933;-69
2023/11/12 04:29:48;;;;;;;0.10;0.10;;;;;;;3.55;90.21;98745.41;4969323;28;20572;-69
2023/11/12 04:32:14;;;;;;;0.10;0.10;;;;;;;3.49;90.52;98746.44;5013745;28;20146;-70
2023/11/12 04:34:42;;;;;;;0.10;0.10;;;;;;;3.48;90.99;98735.88;4963143;28;20601;-70
2023/11/12 04:37:09;;;;;;;0.10;0.10;;;;;;;3.44;91.54;98746.38;4954999;28;20059;-70
2023/11/12 04:39:37;;;;;;;0.10;0.10;;;;;;;3.35;91.76;98728.97;4958243;28;20054;-70
2023/11/12 04:42:03;;;;;;;0.10;0.10;;;;;;;3.38;92.04;98715.78;4956479;28;20080;-70
2023/11/12 04:44:29;;;;;;;0.10;0.10;;;;;;;3.35;91.86;98707.38;4975120;28;20062;-70
2023/11/12 04:46:55;;;;;;;0.10;0.10;;;;;;;3.32;91.95;98713.28;4982679;28;20128;-70
2023/11/12 04:49:22;;;;;;;0.10;0.10;;;;;;;3.31;92.24;98700.84;4960723;28;20050;-70
2023/11/12 04:51:48;;;;;;;0.10;0.10;;;;;;;3.29;92.02;98703.78;4964765;28;20115;-70
2023/11/12 04:54:14;;;;;;;0.00;0.00;;;;;;;3.32;92.03;98711.38;4961175;28;20149;-70
2023/11/12 04:56:46;;;;;;;0.10;0.10;;;;;;;3.35;91.87;98697.34;4953927;28;20077;-70
2023/11/12 04:59:12;;;;;;;0.10;0.10;;;;;;;3.38;92.16;98710.38;4968210;28;20158;-69
2023/11/12 05:01:38;;;;;;;0.10;0.10;;;;;;;3.39;92.19;98703.06;4956527;28;20154;-71
2023/11/12 05:04:05;;;;;;;0.10;0.10;;;;;;;3.38;92.42;98688.75;4959895;28;20069;-71
2023/11/12 05:06:31;;;;;;;0.10;0.10;;;;;;;3.40;92.13;98689.31;4960131;28;20352;-71
2023/11/12 05:08:58;;;;;;;0.10;0.10;;;;;;;3.44;92.13;98689.63;4985096;28;20280;-70
2023/11/12 05:11:25;;;;;;;0.10;0.10;;;;;;;3.50;92.08;98685.91;4962912;28;20058;-71
2023/11/12 05:13:53;;;;;;;0.10;0.10;;;;;;;3.47;91.98;98688.28;4960013;28;20051;-70
2023/11/12 05:16:19;;;;;;;0.10;0.10;;;;;;;3.48;91.90;98682.63;4957808;28;20070;-70
2023/11/12 05:18:46;;;;;;;0.10;0.10;;;;;;;3.50;91.81;98685.06;4957873;28;20559;-71
2023/11/12 05:21:12;;;;;;;0.10;0.10;;;;;;;3.48;91.66;98684.50;4961864;28;20054;-70
2023/11/12 05:23:38;;;;;;;0.10;0.10;;;;;;;3.47;91.11;98677.47;4959520;28;20042;-70
2023/11/12 05:26:04;;;;;;;0.10;0.10;;;;;;;3.45;91.72;98674.22;4959278;28;20455;-70
2023/11/12 05:28:31;;;;;;;0.00;0.00;;;;;;;3.48;91.63;98679.09;4961191;28;20058;-71
2023/11/12 05:30:58;;;;;;;0.10;0.10;;;;;;;3.47;91.27;98659.38;4963375;28;20100;-71
2023/11/12 05:33:24;;;;;;;0.00;0.00;;;;;;;3.48;91.40;98652.91;4961293;28;20046;-70
2023/11/12 05:35:51;;;;;;;0.10;0.10;;;;;;;3.52;91.19;98647.81;4958556;28;20057;-70
2023/11/12 05:38:17;;;;;;;0.10;0.10;;;;;;;3.50;90.87;98655.34;4945001;28;20514;-69
2023/11/12 05:40:43;;;;;;;0.10;0.10;;;;;;;3.52;90.82;98639.72;4960772;28;20051;-71
2023/11/12 05:43:10;;;;;;;0.10;0.10;;;;;;;3.50;90.38;98641.81;4965802;28;20054;-70
2023/11/12 05:45:36;;;;;;;0.10;0.10;;;;;;;3.53;90.58;98631.31;4957673;28;20047;-70
2023/11/12 05:48:04;;;;;;;0.00;0.00;;;;;;;3.53;90.41;98609.69;4960658;28;20537;-71
2023/11/12 05:50:30;;;;;;;0.10;0.10;;;;;;;3.53;89.91;98611.59;4997916;28;20056;-70
2023/11/12 05:52:57;;;;;;;0.10;0.10;;;;;;;3.57;90.03;98604.59;4942688;28;20057;-70
2023/11/12 05:55:25;;;;;;;0.10;0.10;;;;;;;3.60;90.01;98592.47;4941976;28;20046;-71
2023/11/12 05:57:51;;;;;;;0.10;0.10;;;;;;;3.62;89.71;98595.72;4961471;28;20046;-71
2023/11/12 06:00:18;;;;;;;0.10;0.10;;;;;;;3.67;89.18;98588.47;4964682;28;20061;-71
2023/11/12 06:02:45;;;;;;;0.10;0.10;;;;;;;3.65;88.66;98585.19;4974790;28;20509;-70
2023/11/12 06:05:13;;;;;;;0.10;0.10;;;;;;;3.68;88.81;98583.88;4985560;28;20282;-71
2023/11/12 06:07:39;;;;;;;;;;;;;;;3.71;88.84;98574.44;4958047;28;20546;-72
2023/11/12 06:10:06;;;;;;;0.10;0.10;;;;;;;3.71;88.75;98564.41;4958069;28;20322;-71
2023/11/12 06:12:32;;;;;;;0.10;0.10;;;;;;;3.72;88.73;98557.94;4932504;28;20054;-71
2023/11/12 06:14:58;;;;;;;0.10;0.10;;;;;;;3.73;89.01;98562.25;4982083;28;20041;-70
2023/11/12 06:17:25;;;;;;;0.10;0.10;;;;;;;3.68;88.59;98557.66;4958782;28;20318;-69
2023/11/12 06:19:51;;;;;;;0.10;0.10;;;;;;;3.72;88.88;98543.63;4958229;28;20517;-70
2023/11/12 06:22:20;;;;;;;0.10;0.10;;;;;;;3.73;88.58;98551.44;4956829;28;20051;-72
2023/11/12 06:24:46;;;;;;;0.10;0.10;;;;;;;3.75;88.52;98545.78;4962513;28;20051;-70
2023/11/12 06:27:13;;;;;;;0.10;0.10;;;;;;;3.76;88.42;98542.00;4974259;28;20572;-69
2023/11/12 06:29:39;;;;;;;0.10;0.10;;;;;;;3.75;88.32;98538.50;4964894;28;20051;-69
2023/11/12 06:32:06;;;;;;;0.10;0.10;;;;;;;3.74;88.63;98531.44;4961606;28;20137;-71
2023/11/12 06:34:34;;;;;;;0.10;0.10;;;;;;;3.77;88.49;98520.13;4967290;28;20145;-71
2023/11/12 06:37:02;;;;;;;0.10;0.10;;;;;;;3.73;87.75;98510.88;4957939;28;20233;-71
2023/11/12 06:39:31;;;;;;;0.10;0.10;;;;;;;3.75;87.70;98525.00;4958194;28;20047;-71
2023/11/12 06:41:58;;;;;;;0.10;0.10;;;;;;;3.74;87.46;98496.28;4942900;28;20051;-69
2023/11/12 06:44:25;;;;;;;0.10;0.10;;;;;;;3.72;87.22;98493.03;4957892;28;20513;-71
2023/11/12 06:46:51;;;;;;;0.10;0.10;;;;;;;3.75;87.03;98502.53;4953460;28;20307;-70
2023/11/12 06:49:17;;;;;;;0.10;0.10;;;;;;;3.74;87.38;98501.69;4955753;28;20038;-70
2023/11/12 06:51:44;;;;;;;0.10;0.10;;;;;;;3.75;87.24;98492.53;4959781;28;20073;-70
2023/11/12 06:54:10;;;;;;;0.10;0.10;;;;;;;3.72;87.16;98489.53;4964191;28;20046;-70
2023/11/12 06:56:38;;;;;;;0.10;0.10;;;;;;;3.66;87.79;98473.28;4956248;28;20047;-70
2023/11/12 06:59:05;;;;;;;0.10;0.10;;;;;;;3.66;88.55;98475.97;4957544;28;20065;-70
2023/11/12 07:01:31;;;;;;;0.10;0.10;;;;;;;3.63;88.85;98470.28;4963266;28;20046;-70
2023/11/12 07:03:57;;;;;;;0.10;0.10;;;;;;;3.62;89.85;98461.34;4957311;28;20196;-70
2023/11/12 07:06:23;;;;;;;0.10;0.10;;;;;;;3.55;90.17;98460.78;4951659;28;20852;-69
2023/11/12 07:08:49;;;;;;;0.10;0.10;;;;;;;3.52;90.92;98470.22;4962685;28;20519;-71
2023/11/12 07:11:16;;;;;;;0.10;0.10;;;;;;;3.47;91.17;98463.97;4954376;28;20141;-70
2023/11/12 07:13:44;;;;;;;0.10;0.10;;;;;;;3.46;91.68;98470.47;4955001;28;20050;-69
2023/11/12 07:16:16;;;;;;;0.10;0.10;;;;;;;3.49;92.65;98462.66;4980696;28;20468;-69
2023/11/12 07:18:42;;;;;;;0.10;0.10;;;;;;;3.48;92.60;98458.31;4953950;28;20065;-69
2023/11/12 07:21:08;;;;;;;0.10;0.10;;;;;;;3.47;93.24;98454.00;4958591;28;20046;-69
2023/11/12 07:23:36;;;;;;;0.10;0.10;;;;;;;3.35;93.34;98453.38;4976978;28;20046;-69
2023/11/12 07:26:03;;;;;;;0.10;0.10;;;;;;;3.25;94.23;98438.69;4960134;28;20061;-69
2023/11/12 07:28:30;;;;;;;0.10;0.10;;;;;;;3.18;94.62;98435.44;4960362;28;20650;-69
2023/11/12 07:30:58;;;;;;;0.10;0.10;;;;;;;3.14;95.15;98436.19;4958757;28;20081;-70
2023/11/12 07:33:24;;;;;;;0.10;0.10;;;;;;;3.09;95.47;98434.25;4953564;28;20150;-72
2023/11/12 07:35:50;;;;;;;0.10;0.10;;;;;;;3.00;95.85;98411.53;4954707;28;20406;-71
2023/11/12 07:38:16;;;;;;;0.10;0.10;;;;;;;3.09;96.21;98415.34;4962767;28;20065;-71
2023/11/12 07:40:42;;;;;;;0.10;0.10;;;;;;;3.11;96.44;98418.59;4944221;28;20061;-71
2023/11/12 07:43:08;;;;;;;0.10;0.10;;;;;;;3.09;96.74;98416.19;4942668;28;20047;-71
2023/11/12 07:45:35;;;;;;;0.10;0.10;;;;;;;3.08;97.03;98419.13;4958822;28;20548;-71
2023/11/12 07:48:04;;;;;;;0.10;0.10;;;;;;;3.01;97.49;98410.47;4955782;28;20433;-71
2023/11/12 07:50:30;;;;;;;0.03;0.03;;;;;;;2.98;98.15;98385.59;4956325;28;20154;-70
2023/11/12 07:52:57;;;;;;;0.10;0.10;;;;;;;2.93;98.41;98399.03;4962811;28;20509;-71
2023/11/12 07:55:25;;;;;;;0.10;0.10;;;;;;;2.95;98.85;98396.09;4956859;28;20058;-71
2023/11/12 07:57:52;;;;;;;0.10;0.10;;;;;;;2.91;98.96;98389.59;4978382;28;20042;-71
2023/11/12 08:00:19;;;;;;;0.10;0.10;;;;;;;2.92;98.70;98381.22;4958575;28;20065;-70
2023/11/12 08:02:47;;;;;;;0.10;0.10;;;;;;;2.97;98.69;98381.28;4980543;28;20046;-71
2023/11/12 08:05:15;;;;;;;0.10;0.10;;;;;;;2.93;98.46;98372.03;4957685;28;20531;-69
2023/11/12 08:07:41;;;;;;;0.10;0.10;;;;;;;2.96;98.10;98376.13;4957904;28;20066;-71
2023/11/12 08:10:08;;;;;;;0.10;0.10;;;;;;;2.93;98.31;98382.03;4963280;28;20054;-69
2023/11/12 08:12:34;;;;;;;0.10;0.10;;;;;;;2.90;98.55;98345.56;4965813;28;20062;-69
2023/11/12 08:15:00;;;;;;;0.10;0.10;;;;;;;2.87;99.38;98356.06;4957108;28;20054;-71
2023/11/12 08:17:27;;;;;;;0.00;0.00;;;;;;;2.89;99.90;98351.22;4977069;28;20040;-69
2023/11/12 08:19:53;;;;;;;0.10;0.10;;;;;;;2.91;100.00;98341.78;4964232;28;20070;-71
2023/11/12 08:22:21;;;;;;;0.00;0.00;;;;;;;2.84;100.00;98322.31;4976321;28;20735;-71
2023/11/12 08:24:47;;;;;;;;;;;;;;;2.78;100.00;98326.88;4977285;28;20417;-71
2023/11/12 08:27:13;;;;;;;0.10;0.10;;;;;;;2.77;100.00;98332.50;4957804;28;19929;-70
2023/11/12 08:29:39;;;;;;;0.10;0.10;;;;;;;2.78;100.00;98324.16;4958356;28;20065;-71
2023/11/12 08:32:07;;;;;;;0.10;0.10;;;;;;;2.78;100.00;98313.38;4959328;28;20526;-70
2023/11/12 08:34:35;;;;;;;0.10;0.10;;;;;;;2.78;100.00;98318.78;4993538;28;20557;-70
2023/11/12 08:37:02;;;;;;;0.10;0.10;;;;;;;2.75;100.00;98329.25;4979089;28;20577;-69
2023/11/12 08:39:29;;;;;;;;;;;;;;;2.75;100.00;98327.41;4951421;28;20304;-71
2023/11/12 08:41:56;;;;;;;0.10;0.10;;;;;;;2.73;100.00;98342.22;4955022;28;19933;-69
2023/11/12 08:44:22;;;;;;;0.10;0.10;;;;;;;2.78;100.00;98326.03;4957842;28;20179;-69
2023/11/12 08:46:49;;;;;;;0.10;0.10;;;;;;;2.76;100.00;98329.03;4956356;28;20776;-69
2023/11/12 08:49:15;;;;;;;0.10;0.10;;;;;;;2.71;100.00;98317.38;4983857;28;20064;-71
2023/11/12 08:51:42;;;;;;;0.10;0.10;;;;;;;2.72;100.00;98306.28;4956492;28;20047;-71
2023/11/12 08:54:09;;;;;;;0.10;0.10;;;;;;;2.75;100.00;98310.38;4956104;28;20436;-71
2023/11/12 08:56:37;;;;;;;0.10;0.10;;;;;;;2.76;100.00;98288.53;4965966;28;20489;-70
2023/11/12 08:59:03;;;;;;;0.10;0.10;;;;;;;2.77;100.00;98278.53;4959780;28;20112;-69
2023/11/12 09:01:34;;;;;;;0.10;0.10;;;;;;;2.76;100.00;98277.72;4956448;28;20062;-68
2023/11/12 09:04:00;;;;;;;0.10;0.10;;;;;;;2.81;100.00;98274.22;4955788;28;20050;-69
2023/11/12 09:06:27;;;;;;;0.10;0.10;;;;;;;2.78;100.00;98264.78;4955966;28;20421;-69
2023/11/12 09:08:55;;;;;;;0.10;0.10;;;;;;;2.80;100.00;98240.19;4954581;28;20137;-69
2023/11/12 09:11:21;;;;;;;0.10;0.10;;;;;;;2.79;100.00;98252.06;4961665;28;20105;-69
2023/11/12 09:13:49;;;;;;;0.10;0.10;;;;;;;2.75;100.00;98242.88;4956332;28;20055;-70
2023/11/12 09:16:16;;;;;;;0.00;0.00;;;;;;;2.80;100.00;98229.41;4973897;28;20547;-70
2023/11/12 09:18:42;;;;;;;0.10;0.10;;;;;;;2.78;100.00;98232.38;4958640;28;20064;-71
2023/11/12 09:21:09;;;;;;;0.10;0.10;;;;;;;2.77;100.00;98222.66;4958515;28;20510;-69
2023/11/12 09:23:35;;;;;;;0.10;0.10;;;;;;;2.80;100.00;98232.09;4956970;28;20160;-69
2023/11/12 09:26:03;;;;;;;0.10;0.10;;;;;;;2.84;100.00;98212.44;4967725;28;20411;-71
2023/11/12 09:28:30;;;;;;;0.10;0.10;;;;;;;2.78;100.00;98227.00;4966828;28;20393;-69
2023/11/12 09:30:58;;;;;;;0.10;0.10;;;;;;;2.78;100.00;98212.66;4938214;28;20055;-70
2023/11/12 09:33:26;;;;;;;0.10;0.10;;;;;;;2.81;100.00;98209.44;4957633;28;20133;-71
2023/11/12 09:35:52;;;;;;;0.10;0.10;;;;;;;2.81;100.00;98202.16;4959463;28;20055;-72
2023/11/12 09:38:18;;;;;;;0.10;0.10;;;;;;;2.82;100.00;98198.38;4970278;28;20071;-70
2023/11/12 09:40:44;;;;;;;0.10;0.10;;;;;;;2.86;100.00;98184.34;4961848;28;20047;-72
2023/11/12 09:43:12;;;;;;;0.10;0.10;;;;;;;2.85;100.00;98180.84;4957492;28;20046;-69
2023/11/12 09:45:41;;;;;;;;;;;;;;;2.86;100.00;98177.06;4954756;28;20569;-69
2023/11/12 09:48:18;;;;;;;0.10;0.10;;;;;;;2.87;100.00;98172.47;4958108;28;19945;-69
2023/11/12 09:50:47;;;;;;;0.10;0.10;;;;;;;2.88;100.00;98163.31;4973071;28;20052;-69
2023/11/12 09:53:14;;;;;;;0.10;0.10;;;;;;;2.84;100.00;98149.53;4961040;28;20512;-70
2023/11/12 09:55:43;;;;;;;0.10;0.10;;;;;;;2.82;100.00;98165.19;4974991;28;20078;-70
2023/11/12 09:58:09;;;;;;;0.10;0.10;;;;;;;2.89;100.00;98159.53;4962478;28;20123;-70
2023/11/12 10:00:35;;;;;;;0.10;0.10;;;;;;;2.91;100.00;98152.00;4961632;28;20208;-70
2023/11/12 10:03:06;;;;;;;0.10;0.10;;;;;;;2.96;100.00;98152.00;4963199;28;20050;-69
2023/11/12 10:05:34;;;;;;;0.10;0.10;;;;;;;3.01;100.00;98152.00;4959594;28;20525;-69
2023/11/12 10:08:01;;;;;;;0.10;0.10;;;;;;;3.08;100.00;98147.19;4964397;28;20042;-69
2023/11/12 10:10:31;;;;;;;0.10;0.10;;;;;;;3.14;100.00;98142.63;4962106;28;20094;-69
2023/11/12 10:12:58;;;;;;;0.10;0.10;;;;;;;3.18;100.00;98130.19;4958920;28;20049;-69
2023/11/12 10:15:25;;;;;;;0.10;0.10;;;;;;;3.12;100.00;98115.84;4956720;28;20494;-70
2023/11/12 10:17:52;;;;;;;;;;;;;;;3.15;100.00;98119.91;4964952;28;20133;-69
2023/11/12 10:20:20;;;;;;;0.00;0.00;;;;;;;3.11;100.00;98108.84;4959991;28;19954;-69
2023/11/12 10:22:48;;;;;;;0.10;0.10;;;;;;;3.10;100.00;98096.41;4975023;28;20078;-69
2023/11/12 10:25:35;;;;;;;0.10;0.10;;;;;;;3.09;100.00;98102.91;4968628;28;20133;-69
2023/11/12 10:28:02;;;;;;;0.10;0.10;;;;;;;3.09;100.00;98089.38;4964223;28;20108;-70
2023/11/12 10:30:28;;;;;;;0.10;0.10;;;;;;;3.08;100.00;98076.97;4939214;28;20053;-69
2023/11/12 10:33:00;;;;;;;0.10;0.10;;;;;;;3.14;100.00;98085.88;4958717;28;20043;-68
2023/11/12 10:35:28;;;;;;;0.10;0.10;;;;;;;3.14;100.00;98076.97;4968593;28;20433;-68
2023/11/12 10:37:59;;;;;;;0.10;0.10;;;;;;;3.13;100.00;98068.06;4973550;28;20094;-68
2023/11/12 10:40:26;;;;;;;0.10;0.10;;;;;;;3.09;100.00;98056.97;4959171;28;20043;-71
2023/11/12 10:42:58;;;;;;;0.10;0.10;;;;;;;3.09;100.00;98065.09;4962201;28;20603;-71
2023/11/12 10:45:27;;;;;;;0.10;0.10;;;;;;;3.18;100.00;98053.72;4955980;28;20047;-71
2023/11/12 10:47:56;;;;;;;0.00;0.00;;;;;;;3.24;100.00;98058.06;4959767;28;20608;-71
2023/11/12 10:50:24;;;;;;;0.10;0.10;;;;;;;3.26;100.00;98051.31;4957244;28;20112;-71
2023/11/12 10:52:52;;;;;;;0.10;0.10;;;;;;;3.26;100.00;98051.31;4977722;28;20067;-71
2023/11/12 10:55:21;;;;;;;;;;;;;;;3.26;100.00;98032.41;4960758;28;20046;-71
2023/11/12 10:57:48;;;;;;;0.10;0.10;;;;;;;3.28;100.00;98040.25;4956582;28;20025;-71
2023/11/12 11:00:16;;;;;;;0.10;0.10;;;;;;;3.28;100.00;98026.75;4962466;28;20128;-71
2023/11/12 11:02:44;;;;;;;0.10;0.10;;;;;;;3.37;100.00;98040.50;4957829;28;20050;-71
2023/11/12 11:05:12;;;;;;;0.05;0.05;;;;;;;3.39;100.00;98027.53;4963849;28;20436;-71
2023/11/12 11:07:39;;;;;;;0.10;0.10;;;;;;;3.38;100.00;98017.81;4971316;28;20042;-69
2023/11/12 11:10:07;;;;;;;0.10;0.10;;;;;;;3.41;100.00;98006.47;4957331;28;20472;-71
2023/11/12 11:12:35;;;;;;;0.10;0.10;;;;;;;3.41;100.00;98009.16;4960795;28;20051;-71
2023/11/12 11:15:35;;;;;;;0.10;0.10;;;;;;;3.46;100.00;98009.19;4960346;28;20116;-71
2023/11/12 11:18:03;;;;;;;0.10;0.10;;;;;;;3.48;100.00;98004.31;4968039;28;20062;-68
2023/11/12 11:21:13;;;;;;;0.10;0.10;;;;;;;3.46;100.00;97997.53;4962360;28;20123;-68
2023/11/12 11:23:40;;;;;;;0.10;0.10;;;;;;;3.46;100.00;97992.97;4956738;28;20042;-68
2023/11/12 11:26:32;;;;;;;0.10;0.10;;;;;;;3.45;100.00;97985.94;4958574;28;20093;-68
2023/11/12 11:29:16;;;;;;;0.10;0.10;;;;;;;3.52;100.00;97966.75;4930552;28;20356;-68
2023/11/12 11:32:12;;;;;;;0.10;0.10;;;;;;;3.52;100.00;97977.56;4955340;28;20216;-68
2023/11/12 11:34:41;;;;;;;0.10;0.10;;;;;;;3.54;100.00;97973.47;4959575;28;20544;-68
2023/11/12 11:37:09;;;;;;;0.10;0.10;;;;;;;3.60;100.00;97957.28;4942081;28;20047;-68
2023/11/12 11:39:36;;;;;;;0.10;0.10;;;;;;;3.64;100.00;97958.34;4956346;28;20058;-68
2023/11/12 11:42:12;;;;;;;0.10;0.10;;;;;;;3.67;100.00;97957.78;4985394;28;20481;-68
2023/11/12 11:44:45;;;;;;;0.10;0.10;;;;;;;3.61;100.00;97948.88;4959035;28;20082;-71